Time;durP1;ratioP1;P1;durP2;ratioP2;P2;SDS_P1;SDS_P2;PMS_P1;PMS_P2;Temp;Humidity;BMP_temperature;BMP_pressure;BME280_temperature;BME280_humidity;BME280_pressure;Samples;Min_cycle;Max_cycle;Signal;HPM_P1;HPM_P2
2021/10/12 00:01:48;;;;;;;;;;;7.00;99.90;;;;;;5054357;28;20242;-84
2021/10/12 00:04:13;;;;;;;;;;;6.90;99.90;;;;;;5036126;28;20031;-84
2021/10/12 00:06:39;;;;;;;;;;;6.80;99.90;;;;;;5073115;28;19909;-84
2021/10/12 00:09:05;;;;;;;;;;;6.80;99.90;;;;;;5061377;28;19909;-84
2021/10/12 00:11:30;;;;;;;;;;;6.70;99.90;;;;;;5048299;28;20004;-84
2021/10/12 00:13:56;;;;;;;;;;;6.70;99.90;;;;;;5071691;28;20007;-84
2021/10/12 00:16:21;;;;;;;;;;;6.60;99.90;;;;;;5055498;28;20365;-84
2021/10/12 00:18:47;;;;;;;;;;;6.50;99.90;;;;;;5053891;28;19912;-84
2021/10/12 00:21:13;;;;;;;;;;;6.40;99.90;;;;;;5067260;28;19913;-84
2021/10/12 00:23:38;;;;;;;;;;;6.40;99.90;;;;;;5042697;28;19931;-84
2021/10/12 00:26:04;;;;;;;;;;;6.30;99.90;;;;;;5053843;28;19956;-84
2021/10/12 00:28:30;;;;;;;;;;;6.20;99.90;;;;;;5052464;28;19916;-84
2021/10/12 00:30:56;;;;;;;;;;;6.20;99.90;;;;;;5055708;28;19938;-84
2021/10/12 00:33:22;;;;;;;;;;;6.10;99.90;;;;;;5055048;28;20007;-84
2021/10/12 00:35:47;;;;;;;;;;;6.10;99.90;;;;;;5068588;28;19908;-83
2021/10/12 00:38:13;;;;;;;;;;;6.00;99.90;;;;;;5054068;28;19909;-84
2021/10/12 00:40:38;;;;;;;;;;;6.00;99.90;;;;;;5055245;28;19913;-84
2021/10/12 00:43:04;;;;;;;;;;;5.90;99.90;;;;;;5054848;28;19978;-84
2021/10/12 00:45:30;;;;;;;;;;;5.90;99.90;;;;;;5072439;28;19931;-83
2021/10/12 00:47:57;;;;;;;;;;;5.90;99.90;;;;;;5071969;28;20364;-83
2021/10/12 00:50:23;;;;;;;;;;;5.80;99.90;;;;;;5072531;28;19915;-84
2021/10/12 00:52:49;;;;;;;;;;;5.80;99.90;;;;;;5047686;28;19917;-84
2021/10/12 00:55:14;;;;;;;;;;;5.80;99.90;;;;;;5038869;28;19920;-84
2021/10/12 00:57:40;;;;;;;;;;;5.80;99.90;;;;;;5054644;28;20006;-84
2021/10/12 01:00:06;;;;;;;;;;;5.80;99.90;;;;;;5054495;28;19913;-84
2021/10/12 01:02:34;;;;;;;;;;;5.80;99.90;;;;;;5054096;28;20489;-84
2021/10/12 01:05:00;;;;;;;;;;;5.80;99.90;;;;;;5042684;28;20348;-84
2021/10/12 01:07:25;;;;;;;;;;;5.80;99.90;;;;;;5058798;28;20399;-84
2021/10/12 01:09:51;;;;;;;;;;;5.80;99.90;;;;;;5048443;28;19908;-84
2021/10/12 01:12:16;;;;;;;;;;;5.80;99.90;;;;;;5048067;28;19975;-84
2021/10/12 01:14:42;;;;;;;;;;;5.80;99.90;;;;;;5065974;28;19913;-84
2021/10/12 01:17:07;;;;;;;;;;;5.90;99.90;;;;;;5048012;28;19909;-84
2021/10/12 01:19:34;;;;;;;;;;;6.00;99.90;;;;;;5059350;28;19909;-84
2021/10/12 01:21:59;;;;;;;;;;;6.10;99.90;;;;;;5053952;28;20391;-84
2021/10/12 01:24:25;;;;;;;;;;;6.10;99.90;;;;;;5040428;28;19909;-84
2021/10/12 01:26:50;;;;;;;;;;;6.30;99.90;;;;;;5035809;28;19974;-83
2021/10/12 01:29:16;;;;;;;;;;;6.30;99.90;;;;;;5035076;28;20399;-84
2021/10/12 01:31:42;;;;;;;;;;;6.20;99.90;;;;;;5052844;28;20338;-84
2021/10/12 01:34:12;;;;;;;;;;;6.40;99.90;;;;;;5071604;28;19912;-84
2021/10/12 01:36:37;;;;;;;;;;;6.70;99.90;;;;;;5035877;28;19909;-84
2021/10/12 01:39:02;;;;;;;;;;;6.90;99.90;;;;;;5070639;28;20451;-84
2021/10/12 01:41:28;;;;;;;;;;;6.90;99.90;;;;;;5071875;28;19908;-83
2021/10/12 01:43:53;;;;;;;;;;;6.90;99.90;;;;;;5070978;28;19909;-83
2021/10/12 01:46:19;;;;;;;;;;;6.90;99.90;;;;;;5061201;28;19909;-84
2021/10/12 01:48:45;;;;;;;;;;;6.80;99.90;;;;;;5034686;28;19909;-83
2021/10/12 01:51:10;;;;;;;;;;;6.60;99.90;;;;;;5054010;28;20402;-84
2021/10/12 01:53:36;;;;;;;;;;;6.40;99.90;;;;;;5053632;28;19912;-84
2021/10/12 01:56:02;;;;;;;;;;;6.40;99.90;;;;;;5050617;28;19916;-84
2021/10/12 01:58:28;;;;;;;;;;;6.40;99.90;;;;;;5055651;28;19917;-84
2021/10/12 02:00:53;;;;;;;;;;;6.20;99.90;;;;;;5051606;28;20070;-84
2021/10/12 02:03:19;;;;;;;;;;;6.10;99.90;;;;;;5051563;28;19919;-84
2021/10/12 02:05:44;;;;;;;;;;;5.80;99.90;;;;;;5056624;28;20315;-84
2021/10/12 02:08:10;;;;;;;;;;;5.70;99.90;;;;;;5051692;28;19908;-84
2021/10/12 02:10:35;;;;;;;;;;;5.70;99.90;;;;;;5053419;28;19912;-83
2021/10/12 02:13:01;;;;;;;;;;;5.70;99.90;;;;;;5075440;28;19916;-84
2021/10/12 02:15:26;;;;;;;;;;;5.80;99.90;;;;;;5043285;28;19912;-84
2021/10/12 02:17:52;;;;;;;;;;;5.70;99.90;;;;;;5039302;28;19915;-84
2021/10/12 02:20:17;;;;;;;;;;;5.80;99.90;;;;;;5050358;28;20380;-84
2021/10/12 02:22:43;;;;;;;;;;;5.90;99.90;;;;;;5047853;28;20001;-84
2021/10/12 02:25:09;;;;;;;;;;;5.90;99.90;;;;;;5042536;28;19909;-85
2021/10/12 02:27:35;;;;;;;;;;;5.90;99.90;;;;;;5044921;28;19909;-84
2021/10/12 02:30:00;;;;;;;;;;;6.10;99.90;;;;;;5057424;28;19931;-83
2021/10/12 02:32:26;;;;;;;;;;;6.10;99.90;;;;;;5050831;28;19970;-84
2021/10/12 02:34:52;;;;;;;;;;;6.00;99.90;;;;;;5055969;28;20007;-84
2021/10/12 02:37:17;;;;;;;;;;;6.00;99.90;;;;;;5057167;28;20291;-84
2021/10/12 02:39:43;;;;;;;;;;;6.00;99.90;;;;;;5068649;28;19908;-84
2021/10/12 02:42:09;;;;;;;;;;;6.00;99.90;;;;;;5063114;28;19915;-83
2021/10/12 02:44:34;;;;;;;;;;;6.10;99.90;;;;;;5071367;28;20365;-83
2021/10/12 02:47:00;;;;;;;;;;;6.10;99.90;;;;;;5054236;28;19966;-84
2021/10/12 02:49:25;;;;;;;;;;;6.10;99.90;;;;;;5057426;28;19913;-84
2021/10/12 02:51:51;;;;;;;;;;;6.10;99.90;;;;;;5073182;28;19908;-83
2021/10/12 02:54:16;;;;;;;;;;;6.20;99.90;;;;;;5042212;28;19982;-84
2021/10/12 02:56:42;;;;;;;;;;;6.20;99.90;;;;;;5039980;28;19998;-84
2021/10/12 02:59:07;;;;;;;;;;;6.30;99.90;;;;;;5055606;28;19955;-84
2021/10/12 03:01:33;;;;;;;;;;;6.40;99.90;;;;;;5054067;28;19999;-84
2021/10/12 03:03:58;;;;;;;;;;;6.30;99.90;;;;;;5069657;28;19954;-83
2021/10/12 03:06:24;;;;;;;;;;;6.40;99.90;;;;;;5055393;28;19909;-84
2021/10/12 03:08:49;;;;;;;;;;;6.50;99.90;;;;;;5050487;28;19909;-83
2021/10/12 03:11:15;;;;;;;;;;;6.90;99.90;;;;;;5049867;28;19954;-83
2021/10/12 03:13:40;;;;;;;;;;;6.90;99.90;;;;;;5050232;28;19908;-83
2021/10/12 03:16:07;;;;;;;;;;;6.70;99.90;;;;;;5052661;28;19913;-84
2021/10/12 03:18:33;;;;;;;;;;;6.80;99.90;;;;;;5056484;28;19908;-84
2021/10/12 03:20:59;;;;;;;;;;;6.80;99.90;;;;;;5048705;28;19912;-84
2021/10/12 03:23:25;;;;;;;;;;;6.60;99.90;;;;;;5044999;28;19965;-84
2021/10/12 03:25:51;;;;;;;;;;;6.60;99.90;;;;;;5085010;28;19908;-83
2021/10/12 03:28:16;;;;;;;;;;;6.50;99.90;;;;;;5056254;28;20437;-83
2021/10/12 03:30:42;;;;;;;;;;;6.40;99.90;;;;;;5056138;28;19909;-83
2021/10/12 03:33:07;;;;;;;;;;;6.20;99.90;;;;;;5055755;28;19909;-83
2021/10/12 03:35:36;;;;;;;;;;;6.20;99.90;;;;;;5055781;28;20032;-83
2021/10/12 03:38:02;;;;;;;;;;;6.20;99.90;;;;;;5073798;28;20381;-83
2021/10/12 03:40:28;;;;;;;;;;;6.30;99.90;;;;;;5089543;28;20372;-83
2021/10/12 03:42:54;;;;;;;;;;;6.30;99.90;;;;;;5084163;28;19917;-83
2021/10/12 03:45:19;;;;;;;;;;;6.30;99.90;;;;;;5042921;28;19908;-84
2021/10/12 03:47:45;;;;;;;;;;;6.40;99.90;;;;;;5078245;28;19915;-84
2021/10/12 03:50:10;;;;;;;;;;;6.30;99.90;;;;;;5041481;28;20007;-83
2021/10/12 03:52:36;;;;;;;;;;;6.30;99.90;;;;;;5061988;28;20442;-84
2021/10/12 03:55:02;;;;;;;;;;;6.40;99.90;;;;;;5052500;28;19916;-84
2021/10/12 03:57:28;;;;;;;;;;;6.40;99.90;;;;;;5055204;28;19951;-84
2021/10/12 03:59:53;;;;;;;;;;;6.40;99.90;;;;;;5055391;28;19931;-84
2021/10/12 04:02:18;;;;;;;;;;;6.30;99.90;;;;;;5054127;28;20292;-84
2021/10/12 04:04:44;;;;;;;;;;;6.20;99.90;;;;;;5036373;28;19909;-84
2021/10/12 04:07:09;;;;;;;;;;;6.20;99.90;;;;;;5053771;28;19908;-84
2021/10/12 04:09:35;;;;;;;;;;;6.20;99.90;;;;;;5072193;28;19919;-84
2021/10/12 04:12:00;;;;;;;;;;;6.30;99.90;;;;;;5056286;28;20418;-84
2021/10/12 04:14:26;;;;;;;;;;;6.40;99.90;;;;;;5052439;28;19913;-84
2021/10/12 04:16:51;;;;;;;;;;;6.50;99.90;;;;;;5054180;28;19909;-85
2021/10/12 04:19:17;;;;;;;;;;;6.70;99.90;;;;;;5036243;28;19908;-84
2021/10/12 04:21:42;;;;;;;;;;;6.70;99.90;;;;;;5052626;28;19916;-83
2021/10/12 04:24:08;;;;;;;;;;;6.80;99.90;;;;;;5055220;28;19916;-84
2021/10/12 04:26:34;;;;;;;;;;;6.80;99.90;;;;;;5039603;28;19912;-83
2021/10/12 04:28:59;;;;;;;;;;;6.70;99.90;;;;;;5053961;28;20315;-84
2021/10/12 04:31:25;;;;;;;;;;;6.80;99.90;;;;;;5053882;28;19908;-83
2021/10/12 04:33:50;;;;;;;;;;;6.80;99.90;;;;;;5053587;28;19971;-84
2021/10/12 04:36:16;;;;;;;;;;;6.80;99.90;;;;;;5043788;28;20011;-84
2021/10/12 04:38:41;;;;;;;;;;;6.70;99.90;;;;;;5055013;28;19958;-83
2021/10/12 04:41:07;;;;;;;;;;;6.60;99.90;;;;;;5072846;28;19909;-84
2021/10/12 04:43:33;;;;;;;;;;;6.70;99.90;;;;;;5072495;28;19909;-84
2021/10/12 04:45:58;;;;;;;;;;;6.60;99.90;;;;;;5072576;28;19909;-84
2021/10/12 04:48:24;;;;;;;;;;;6.50;99.90;;;;;;5047957;28;19909;-84
2021/10/12 04:50:50;;;;;;;;;;;6.50;99.90;;;;;;5048964;28;19915;-84
2021/10/12 04:53:16;;;;;;;;;;;6.70;99.90;;;;;;5049371;28;19932;-84
2021/10/12 04:55:41;;;;;;;;;;;6.70;99.90;;;;;;5066488;28;20016;-84
2021/10/12 04:58:08;;;;;;;;;;;6.80;99.90;;;;;;5053294;28;19952;-85
2021/10/12 05:00:35;;;;;;;;;;;6.80;99.90;;;;;;5054760;28;20382;-84
2021/10/12 05:03:00;;;;;;;;;;;6.90;99.90;;;;;;5053250;28;19920;-85
2021/10/12 05:05:26;;;;;;;;;;;6.80;99.90;;;;;;5041799;28;20296;-85
2021/10/12 05:07:51;;;;;;;;;;;6.90;99.90;;;;;;5051752;28;20029;-85
2021/10/12 05:10:17;;;;;;;;;;;6.80;99.90;;;;;;5054884;28;19909;-85
2021/10/12 05:12:42;;;;;;;;;;;6.80;99.90;;;;;;5070766;28;19912;-85
2021/10/12 05:15:08;;;;;;;;;;;6.90;99.90;;;;;;5070872;28;19920;-84
2021/10/12 05:17:39;;;;;;;;;;;6.90;99.90;;;;;;5070802;28;20293;-84
2021/10/12 05:20:05;;;;;;;;;;;6.90;99.90;;;;;;5054188;28;19908;-85
2021/10/12 05:22:31;;;;;;;;;;;6.90;99.90;;;;;;5041283;28;19909;-84
2021/10/12 05:24:57;;;;;;;;;;;6.90;99.90;;;;;;5045035;28;19909;-84
2021/10/12 05:27:23;;;;;;;;;;;6.90;99.90;;;;;;5054561;28;19908;-84
2021/10/12 05:29:48;;;;;;;;;;;7.00;99.90;;;;;;5054724;28;20351;-84
2021/10/12 05:32:14;;;;;;;;;;;7.00;99.90;;;;;;5034883;28;20018;-85
2021/10/12 05:34:40;;;;;;;;;;;7.10;99.90;;;;;;5051318;28;19912;-85
2021/10/12 05:37:05;;;;;;;;;;;7.00;99.90;;;;;;5070746;28;19908;-84
2021/10/12 05:39:31;;;;;;;;;;;7.00;99.90;;;;;;5054374;28;19944;-84
2021/10/12 05:41:56;;;;;;;;;;;7.10;99.90;;;;;;5044631;28;19932;-85
2021/10/12 05:44:22;;;;;;;;;;;7.10;99.90;;;;;;5055371;28;19939;-84
2021/10/12 05:46:48;;;;;;;;;;;7.10;99.90;;;;;;5053786;28;20280;-85
2021/10/12 05:49:13;;;;;;;;;;;7.10;99.90;;;;;;5038366;28;19962;-84
2021/10/12 05:51:41;;;;;;;;;;;7.10;99.90;;;;;;5058150;28;20369;-84
2021/10/12 05:54:07;;;;;;;;;;;7.10;99.90;;;;;;5036551;28;20015;-84
2021/10/12 05:59:35;;;;;;;;;;;7.10;99.90;;;;;;4970539;28;21581;-85
2021/10/12 06:02:01;;;;;;;;;;;7.10;99.90;;;;;;5035579;28;19930;-86
2021/10/12 06:04:26;;;;;;;;;;;7.00;99.90;;;;;;5053767;28;19915;-85
2021/10/12 06:06:54;;;;;;;;;;;7.10;99.90;;;;;;5053825;28;19916;-84
2021/10/12 06:09:19;;;;;;;;;;;7.10;99.90;;;;;;5034652;28;20331;-84
2021/10/12 06:11:45;;;;;;;;;;;7.10;99.90;;;;;;5050762;28;19962;-84
2021/10/12 06:14:11;;;;;;;;;;;7.10;99.90;;;;;;5052833;28;19919;-84
2021/10/12 06:16:36;;;;;;;;;;;7.10;99.90;;;;;;5063800;28;20352;-84
2021/10/12 06:19:02;;;;;;;;;;;7.10;99.90;;;;;;5061728;28;19909;-84
2021/10/12 06:21:27;;;;;;;;;;;7.10;99.90;;;;;;5065237;28;19909;-85
2021/10/12 06:23:53;;;;;;;;;;;7.10;99.90;;;;;;5038623;28;19916;-85
2021/10/12 06:26:18;;;;;;;;;;;7.20;99.90;;;;;;5053436;28;20348;-85
2021/10/12 06:28:44;;;;;;;;;;;7.20;99.90;;;;;;5053920;28;19915;-85
2021/10/12 06:31:09;;;;;;;;;;;7.20;99.90;;;;;;5043071;28;19950;-84
2021/10/12 06:33:36;;;;;;;;;;;7.20;99.90;;;;;;5052241;28;19913;-85
2021/10/12 06:36:02;;;;;;;;;;;7.30;99.90;;;;;;5044765;28;19917;-85
2021/10/12 06:38:27;;;;;;;;;;;7.30;99.90;;;;;;5055189;28;19962;-85
2021/10/12 06:40:53;;;;;;;;;;;7.20;99.90;;;;;;5050530;28;19908;-86
2021/10/12 06:43:18;;;;;;;;;;;7.20;99.90;;;;;;5057043;28;20356;-85
2021/10/12 06:45:44;;;;;;;;;;;7.20;99.90;;;;;;5050099;28;19959;-85
2021/10/12 06:48:10;;;;;;;;;;;7.20;99.90;;;;;;5047770;28;19952;-85
2021/10/12 06:50:35;;;;;;;;;;;7.20;99.90;;;;;;5058152;28;19909;-85
2021/10/12 06:53:01;;;;;;;;;;;7.10;99.90;;;;;;5058329;28;19959;-84
2021/10/12 06:55:27;;;;;;;;;;;7.00;99.90;;;;;;5044472;28;20285;-84
2021/10/12 06:57:53;;;;;;;;;;;6.90;99.90;;;;;;5050713;28;19920;-85
2021/10/12 07:00:18;;;;;;;;;;;6.90;99.90;;;;;;5055739;28;19915;-85
2021/10/12 07:02:44;;;;;;;;;;;6.90;99.90;;;;;;5050673;28;19916;-84
2021/10/12 07:05:10;;;;;;;;;;;7.10;99.90;;;;;;5049509;28;19957;-87
2021/10/12 07:07:36;;;;;;;;;;;7.20;99.90;;;;;;5066039;28;20042;-86
2021/10/12 07:10:03;;;;;;;;;;;7.20;99.90;;;;;;5056052;28;20360;-89
2021/10/12 07:12:28;;;;;;;;;;;7.20;99.90;;;;;;5043766;28;20372;-87
2021/10/12 07:14:54;;;;;;;;;;;7.30;99.90;;;;;;5068016;28;19943;-86
2021/10/12 07:17:19;;;;;;;;;;;7.30;99.90;;;;;;5066748;28;19960;-86
2021/10/12 07:19:45;;;;;;;;;;;7.40;99.90;;;;;;5067978;28;19909;-87
2021/10/12 07:22:10;;;;;;;;;;;7.40;99.90;;;;;;5061731;28;19959;-87
2021/10/12 07:24:36;;;;;;;;;;;7.40;99.90;;;;;;5049437;28;20327;-86
2021/10/12 07:27:01;;;;;;;;;;;7.40;99.90;;;;;;5056786;28;20376;-86
2021/10/12 07:29:27;;;;;;;;;;;7.40;99.90;;;;;;5074723;28;19948;-86
2021/10/12 07:31:52;;;;;;;;;;;7.40;99.90;;;;;;5049262;28;20399;-86
2021/10/12 07:34:18;;;;;;;;;;;7.40;99.90;;;;;;5070534;28;19919;-87
2021/10/12 07:36:43;;;;;;;;;;;7.40;99.90;;;;;;5054656;28;19909;-86
2021/10/12 07:39:09;;;;;;;;;;;7.40;99.90;;;;;;5070431;28;19956;-86
2021/10/12 07:41:35;;;;;;;;;;;7.40;99.90;;;;;;5044360;28;19909;-86
2021/10/12 07:44:03;;;;;;;;;;;7.40;99.90;;;;;;5087572;28;19919;-86
2021/10/12 07:46:29;;;;;;;;;;;7.40;99.90;;;;;;5045526;28;19912;-86
2021/10/12 07:48:58;;;;;;;;;;;7.40;99.90;;;;;;5054001;28;19909;-84
2021/10/12 07:51:26;;;;;;;;;;;7.40;99.90;;;;;;5050592;28;19995;-85
2021/10/12 07:53:53;;;;;;;;;;;7.40;99.90;;;;;;5048153;28;19909;-84
2021/10/12 07:56:35;;;;;;;;;;;7.40;99.90;;;;;;5074435;28;20001;-86
2021/10/12 07:59:01;;;;;;;;;;;7.40;99.90;;;;;;5050004;28;19919;-85
2021/10/12 08:01:26;;;;;;;;;;;7.40;99.90;;;;;;5066329;28;19913;-85
2021/10/12 08:03:52;;;;;;;;;;;7.40;99.90;;;;;;5073823;28;19936;-86
2021/10/12 08:06:17;;;;;;;;;;;7.50;99.90;;;;;;5086946;28;20285;-87
2021/10/12 08:08:42;;;;;;;;;;;7.50;99.90;;;;;;5075913;28;19897;-87
2021/10/12 08:11:08;;;;;;;;;;;7.60;99.90;;;;;;5082207;28;19927;-86
2021/10/12 08:13:35;;;;;;;;;;;7.60;99.90;;;;;;5077730;28;20354;-87
2021/10/12 08:16:08;;;;;;;;;;;7.70;99.90;;;;;;5053668;28;19920;-86
2021/10/12 08:18:33;;;;;;;;;;;7.70;99.90;;;;;;5050148;28;19915;-86
2021/10/12 08:21:00;;;;;;;;;;;7.70;99.90;;;;;;5054563;28;19913;-85
2021/10/12 08:23:25;;;;;;;;;;;7.70;99.90;;;;;;5076190;28;19915;-85
2021/10/12 08:25:51;;;;;;;;;;;8.00;99.90;;;;;;5043717;28;20280;-86
2021/10/12 08:28:16;;;;;;;;;;;8.20;99.90;;;;;;5049506;28;19916;-85
2021/10/12 08:30:42;;;;;;;;;;;8.30;99.90;;;;;;5053021;28;20447;-85
2021/10/12 08:33:07;;;;;;;;;;;8.50;99.90;;;;;;5055280;28;19975;-85
2021/10/12 08:35:33;;;;;;;;;;;8.60;99.90;;;;;;5054483;28;19920;-85
2021/10/12 08:37:58;;;;;;;;;;;8.80;99.90;;;;;;5047049;28;19931;-84
2021/10/12 08:40:24;;;;;;;;;;;8.90;99.90;;;;;;5052908;28;20364;-85
2021/10/12 08:42:53;;;;;;;;;;;8.90;99.90;;;;;;5052083;28;19956;-85
2021/10/12 08:45:22;;;;;;;;;;;8.80;99.90;;;;;;5066931;28;19916;-84
2021/10/12 08:47:48;;;;;;;;;;;9.10;99.90;;;;;;5061267;28;19916;-85
2021/10/12 08:50:15;;;;;;;;;;;9.30;99.90;;;;;;5061025;28;19909;-86
2021/10/12 08:52:42;;;;;;;;;;;9.50;99.90;;;;;;5041272;28;19909;-86
2021/10/12 08:55:07;;;;;;;;;;;9.40;99.90;;;;;;5045255;28;19952;-84
2021/10/12 08:57:34;;;;;;;;;;;9.60;99.90;;;;;;5053312;28;20280;-85
2021/10/12 09:00:01;;;;;;;;;;;9.80;99.90;;;;;;5047192;28;19972;-86
2021/10/12 09:02:28;;;;;;;;;;;10.10;99.90;;;;;;5054166;28;19955;-84
2021/10/12 09:04:56;;;;;;;;;;;10.20;99.90;;;;;;5069628;28;19909;-86
2021/10/12 09:07:25;;;;;;;;;;;9.90;99.90;;;;;;5071839;28;19935;-86
2021/10/12 09:09:52;;;;;;;;;;;9.90;99.90;;;;;;5049153;28;19958;-85
2021/10/12 09:12:18;;;;;;;;;;;10.40;99.90;;;;;;5064804;28;20492;-86
2021/10/12 09:15:10;;;;;;;;;;;10.80;99.90;;;;;;5043703;28;19920;-86
2021/10/12 09:17:36;;;;;;;;;;;11.00;99.90;;;;;;5068506;28;20581;-87
2021/10/12 09:20:22;;;;;;;;;;;11.00;99.90;;;;;;5052934;28;19912;-86
2021/10/12 09:23:11;;;;;;;;;;;11.00;99.90;;;;;;5044075;28;19992;-87
2021/10/12 09:25:38;;;;;;;;;;;10.70;99.90;;;;;;5069585;28;20399;-86
2021/10/12 09:28:04;;;;;;;;;;;10.70;99.90;;;;;;5052820;28;20057;-88
2021/10/12 09:30:32;;;;;;;;;;;10.50;99.90;;;;;;5052157;28;19994;-86
2021/10/12 09:33:07;;;;;;;;;;;10.40;99.90;;;;;;5049203;28;19908;-88
2021/10/12 09:35:33;;;;;;;;;;;10.50;99.90;;;;;;5074484;28;19952;-88
2021/10/12 09:38:05;;;;;;;;;;;10.40;99.90;;;;;;5052568;28;19922;-89
2021/10/12 09:40:30;;;;;;;;;;;10.60;99.90;;;;;;5047394;28;19947;-87
2021/10/12 09:42:56;;;;;;;;;;;10.90;99.90;;;;;;5057762;28;20300;-88
2021/10/12 09:45:36;;;;;;;;;;;11.10;99.90;;;;;;5039797;28;19979;-87
2021/10/12 09:48:01;;;;;;;;;;;11.40;99.90;;;;;;5058774;28;19963;-89
2021/10/12 09:50:31;;;;;;;;;;;11.90;99.90;;;;;;5038696;28;19944;-87
2021/10/12 09:52:56;;;;;;;;;;;11.90;99.90;;;;;;5074982;28;19919;-87
2021/10/12 09:55:21;;;;;;;;;;;12.30;99.90;;;;;;5052538;28;19913;-86
2021/10/12 09:57:48;;;;;;;;;;;12.50;99.90;;;;;;5058353;28;19917;-87
2021/10/12 10:00:14;;;;;;;;;;;12.50;99.90;;;;;;5048394;28;20318;-89
2021/10/12 10:02:39;;;;;;;;;;;12.50;99.90;;;;;;5078194;28;19905;-87
2021/10/12 10:05:05;;;;;;;;;;;13.10;99.90;;;;;;5073467;28;19900;-87
2021/10/12 10:07:51;;;;;;;;;;;13.10;99.90;;;;;;5096153;28;19960;-91
2021/10/12 10:10:40;;;;;;;;;;;13.70;99.90;;;;;;5104643;28;19924;-88
2021/10/12 10:13:06;;;;;;;;;;;14.00;99.90;;;;;;5085091;28;19908;-92
2021/10/12 10:15:33;;;;;;;;;;;13.60;99.90;;;;;;5071971;28;19909;-87
2021/10/12 10:18:22;;;;;;;;;;;13.20;99.90;;;;;;5095444;28;19996;-89
2021/10/12 10:20:53;;;;;;;;;;;12.30;99.90;;;;;;5095044;28;19896;-87
2021/10/12 10:23:37;;;;;;;;;;;11.20;99.90;;;;;;5068517;28;19922;-88
2021/10/12 10:26:28;;;;;;;;;;;10.90;99.90;;;;;;5083922;28;19919;-88
2021/10/12 10:29:03;;;;;;;;;;;10.70;99.90;;;;;;5086605;28;19896;-90
2021/10/12 10:31:52;;;;;;;;;;;10.30;99.90;;;;;;5081625;28;19896;-90
2021/10/12 10:34:30;;;;;;;;;;;10.00;99.90;;;;;;5115495;28;19971;-89
2021/10/12 10:37:15;;;;;;;;;;;10.00;99.90;;;;;;5084829;28;19908;-90
2021/10/12 10:39:41;;;;;;;;;;;9.90;99.90;;;;;;5080461;28;19913;-88
2021/10/12 10:42:06;;;;;;;;;;;9.90;99.90;;;;;;5054590;28;19913;-88
2021/10/12 10:44:52;;;;;;;;;;;9.80;99.90;;;;;;5068753;28;19916;-89
2021/10/12 10:47:37;;;;;;;;;;;9.80;99.90;;;;;;5079361;28;19909;-88
2021/10/12 10:50:40;;;;;;;;;;;9.80;99.90;;;;;;5084573;28;19909;-87
2021/10/12 10:53:10;;;;;;;;;;;10.10;99.90;;;;;;5042267;28;19948;-88
2021/10/12 10:56:07;;;;;;;;;;;10.30;99.90;;;;;;5068902;28;19916;-87
2021/10/12 10:58:34;;;;;;;;;;;10.70;99.90;;;;;;5056651;28;19962;-86
2021/10/12 11:01:00;;;;;;;;;;;10.60;99.90;;;;;;5042497;28;20004;-84
2021/10/12 11:03:25;;;;;;;;;;;10.50;99.90;;;;;;5049934;28;19986;-84
2021/10/12 11:05:55;;;;;;;;;;;10.60;99.90;;;;;;5060470;28;19943;-84
2021/10/12 11:08:26;;;;;;;;;;;10.90;99.90;;;;;;5072083;28;19908;-87
2021/10/12 11:10:56;;;;;;;;;;;11.40;99.90;;;;;;5077991;28;19995;-86
2021/10/12 11:13:30;;;;;;;;;;;11.90;99.90;;;;;;5057136;28;19909;-88
2021/10/12 11:16:07;;;;;;;;;;;12.10;99.90;;;;;;5069443;28;19913;-87
2021/10/12 11:18:32;;;;;;;;;;;11.90;99.90;;;;;;5059464;28;19908;-85
2021/10/12 11:20:59;;;;;;;;;;;11.90;99.90;;;;;;5055556;28;20025;-87
2021/10/12 11:23:25;;;;;;;;;;;11.80;99.90;;;;;;5055722;28;19940;-86
2021/10/12 11:26:01;;;;;;;;;;;12.10;99.90;;;;;;5078585;28;19956;-87
2021/10/12 11:28:28;;;;;;;;;;;12.30;99.90;;;;;;5057342;28;20564;-87
2021/10/12 11:30:54;;;;;;;;;;;12.20;99.90;;;;;;5044266;28;20284;-85
2021/10/12 11:33:33;;;;;;;;;;;11.60;99.90;;;;;;5056568;28;19909;-86
2021/10/12 11:36:02;;;;;;;;;;;11.40;99.90;;;;;;5056445;28;19913;-87
2021/10/12 11:38:29;;;;;;;;;;;11.40;99.90;;;;;;5054357;28;19908;-87
2021/10/12 11:41:17;;;;;;;;;;;11.50;99.90;;;;;;5054939;28;20330;-89
2021/10/12 11:43:47;;;;;;;;;;;11.60;99.90;;;;;;5064718;28;20011;-87
2021/10/12 11:46:18;;;;;;;;;;;11.50;99.90;;;;;;5057489;28;19916;-88
2021/10/12 11:48:43;;;;;;;;;;;11.50;99.90;;;;;;5059866;28;20006;-87
2021/10/12 11:51:19;;;;;;;;;;;11.50;99.90;;;;;;5056971;28;19944;-87
2021/10/12 11:53:46;;;;;;;;;;;11.10;99.90;;;;;;5053244;28;20401;-87
2021/10/12 11:56:12;;;;;;;;;;;10.80;99.90;;;;;;5057479;28;19920;-87
2021/10/12 11:58:38;;;;;;;;;;;10.60;99.90;;;;;;5047796;28;19917;-87
2021/10/12 12:01:04;;;;;;;;;;;10.50;99.90;;;;;;5073918;28;19908;-87
2021/10/12 12:03:31;;;;;;;;;;;10.50;99.90;;;;;;5074645;28;19915;-87
2021/10/12 12:05:57;;;;;;;;;;;10.50;99.90;;;;;;5050130;28;19912;-85
2021/10/12 12:08:42;;;;;;;;;;;10.50;99.90;;;;;;5049463;28;19916;-87
2021/10/12 12:11:08;;;;;;;;;;;10.40;99.90;;;;;;5054956;28;20486;-85
2021/10/12 12:13:37;;;;;;;;;;;10.60;99.90;;;;;;5050535;28;19909;-86
2021/10/12 12:16:03;;;;;;;;;;;10.60;99.90;;;;;;5056203;28;19912;-86
2021/10/12 12:18:30;;;;;;;;;;;10.80;99.90;;;;;;5048553;28;19908;-85
2021/10/12 12:21:16;;;;;;;;;;;11.30;99.90;;;;;;5056578;28;19908;-87
2021/10/12 12:23:43;;;;;;;;;;;11.60;99.90;;;;;;5050736;28;20322;-87
2021/10/12 12:26:10;;;;;;;;;;;11.40;99.90;;;;;;5054042;28;19908;-86
2021/10/12 12:28:36;;;;;;;;;;;11.60;99.90;;;;;;5038030;28;20373;-87
2021/10/12 12:31:22;;;;;;;;;;;11.60;99.90;;;;;;5055887;28;19909;-86
2021/10/12 12:33:48;;;;;;;;;;;11.80;99.90;;;;;;5055153;28;20475;-86
2021/10/12 12:36:14;;;;;;;;;;;12.10;99.90;;;;;;5044481;28;19913;-86
2021/10/12 12:38:42;;;;;;;;;;;12.10;99.90;;;;;;5051724;28;19913;-84
2021/10/12 12:41:18;;;;;;;;;;;11.90;99.90;;;;;;5071187;28;19909;-87
2021/10/12 12:43:57;;;;;;;;;;;11.70;99.90;;;;;;5041310;28;19916;-86
2021/10/12 12:46:25;;;;;;;;;;;11.10;99.90;;;;;;5067118;28;19909;-85
2021/10/12 12:49:14;;;;;;;;;;;10.90;99.90;;;;;;5049630;28;19951;-86
2021/10/12 12:51:56;;;;;;;;;;;11.10;99.90;;;;;;5053940;28;19908;-86
2021/10/12 12:54:31;;;;;;;;;;;11.10;99.90;;;;;;5053761;28;19999;-84
2021/10/12 12:57:04;;;;;;;;;;;11.10;99.90;;;;;;5089235;28;19920;-86
2021/10/12 12:59:31;;;;;;;;;;;11.70;99.90;;;;;;5036125;28;19908;-87
2021/10/12 13:02:30;;;;;;;;;;;12.20;99.90;;;;;;5055963;28;19913;-87
2021/10/12 13:05:35;;;;;;;;;;;12.30;99.90;;;;;;5069370;28;19954;-88
2021/10/12 13:08:04;;;;;;;;;;;12.10;99.90;;;;;;5055860;28;19912;-86
2021/10/12 13:10:29;;;;;;;;;;;11.80;99.90;;;;;;5072885;28;19947;-87
2021/10/12 13:13:04;;;;;;;;;;;11.80;99.90;;;;;;5055122;28;20261;-86
2021/10/12 13:15:31;;;;;;;;;;;11.90;99.90;;;;;;5055155;28;19913;-85
2021/10/12 13:17:57;;;;;;;;;;;12.10;99.90;;;;;;5054642;28;20034;-85
2021/10/12 13:23:46;;;;;;;;;;;12.20;99.90;;;;;;5062650;28;20009;-86
2021/10/12 13:26:13;;;;;;;;;;;12.30;99.90;;;;;;5070747;28;19908;-85
2021/10/12 13:28:39;;;;;;;;;;;12.10;99.90;;;;;;5067300;28;20369;-85
2021/10/12 13:31:05;;;;;;;;;;;11.90;99.90;;;;;;5079301;28;20003;-86
2021/10/12 13:33:30;;;;;;;;;;;11.70;99.90;;;;;;5054314;28;19909;-85
2021/10/12 13:35:56;;;;;;;;;;;11.70;99.90;;;;;;5064717;28;20416;-84
2021/10/12 13:38:25;;;;;;;;;;;11.40;99.90;;;;;;5061816;28;20007;-88
2021/10/12 13:40:52;;;;;;;;;;;11.30;99.90;;;;;;5045344;28;19951;-86
2021/10/12 13:43:18;;;;;;;;;;;10.80;99.90;;;;;;5051465;28;19916;-87
2021/10/12 13:45:44;;;;;;;;;;;10.70;99.90;;;;;;5056026;28;20352;-86
2021/10/12 13:48:21;;;;;;;;;;;10.60;99.90;;;;;;5071862;28;19954;-88
2021/10/12 13:50:47;;;;;;;;;;;10.60;99.90;;;;;;5053698;28;20272;-86
2021/10/12 13:53:12;;;;;;;;;;;10.60;99.90;;;;;;5065736;28;19934;-85
2021/10/12 13:55:38;;;;;;;;;;;10.80;99.90;;;;;;5079093;28;20291;-84
2021/10/12 13:58:03;;;;;;;;;;;11.00;99.90;;;;;;5045975;28;19938;-85
2021/10/12 14:00:31;;;;;;;;;;;11.30;99.90;;;;;;5088317;28;19908;-85
2021/10/12 14:02:57;;;;;;;;;;;11.40;99.90;;;;;;5074915;28;19999;-85
2021/10/12 14:05:36;;;;;;;;;;;11.40;99.90;;;;;;5043381;28;19987;-88
2021/10/12 14:08:05;;;;;;;;;;;11.30;99.90;;;;;;5048924;28;20007;-85
2021/10/12 14:10:32;;;;;;;;;;;11.30;99.90;;;;;;5040758;28;19912;-85
2021/10/12 14:12:58;;;;;;;;;;;11.30;99.90;;;;;;5047061;28;20008;-85
2021/10/12 14:15:24;;;;;;;;;;;11.20;99.90;;;;;;5051534;28;19999;-85
2021/10/12 14:17:49;;;;;;;;;;;11.00;99.90;;;;;;5066801;28;19909;-86
2021/10/12 14:20:15;;;;;;;;;;;10.80;99.90;;;;;;5042212;28;19974;-87
2021/10/12 14:22:41;;;;;;;;;;;10.60;99.90;;;;;;5046956;28;20600;-86
2021/10/12 14:25:07;;;;;;;;;;;10.50;99.90;;;;;;5071512;28;19963;-85
2021/10/12 14:27:33;;;;;;;;;;;10.40;99.90;;;;;;5049539;28;19908;-85
2021/10/12 14:30:02;;;;;;;;;;;10.50;99.90;;;;;;5072790;28;19952;-85
2021/10/12 14:32:28;;;;;;;;;;;10.60;99.90;;;;;;5056765;28;19951;-86
2021/10/12 14:35:22;;;;;;;;;;;10.70;99.90;;;;;;5051051;28;19958;-87
2021/10/12 14:37:48;;;;;;;;;;;10.80;99.90;;;;;;5052771;28;19909;-83